createdAt,value
2022-09-17T00:00:11.375Z,13.10
2022-09-17T00:00:34.415Z,13.10
2022-09-17T00:00:59.056Z,13.10
2022-09-17T00:01:23.365Z,13.10
2022-09-17T00:01:46.588Z,13.10
2022-09-17T00:02:10.507Z,13.00
2022-09-17T00:02:33.610Z,13.00
2022-09-17T00:02:56.462Z,13.00
2022-09-17T00:03:19.254Z,13.00
2022-09-17T00:03:41.963Z,13.00
2022-09-17T00:04:06.925Z,13.00
2022-09-17T00:04:29.727Z,13.00
2022-09-17T00:04:52.365Z,13.00
2022-09-17T00:05:15.150Z,13.10
2022-09-17T00:05:38.946Z,13.00
2022-09-17T00:06:01.921Z,13.00
2022-09-17T00:06:25.249Z,13.10
2022-09-17T00:06:48.131Z,13.00
2022-09-17T00:07:10.833Z,13.00
2022-09-17T00:07:33.586Z,13.00
2022-09-17T00:07:58.520Z,13.00
2022-09-17T00:08:21.281Z,13.00
2022-09-17T00:08:43.986Z,13.00
2022-09-17T00:09:07.266Z,13.00
2022-09-17T00:09:30.040Z,12.90
2022-09-17T00:09:52.722Z,13.00
2022-09-17T00:10:15.549Z,13.00
2022-09-17T00:10:39.869Z,13.00
2022-09-17T00:11:07.152Z,12.90
2022-09-17T00:11:31.615Z,12.90
2022-09-17T00:11:54.398Z,13.00
2022-09-17T00:12:17.219Z,13.00
2022-09-17T00:12:39.998Z,13.00
2022-09-17T00:13:02.728Z,13.00
2022-09-17T00:13:25.557Z,13.00
2022-09-17T00:13:49.171Z,13.00
2022-09-17T00:14:14.579Z,13.00
2022-09-17T00:14:37.276Z,13.00
2022-09-17T00:15:00.139Z,12.90
2022-09-17T00:15:25.618Z,12.90
2022-09-17T00:15:48.677Z,12.90
2022-09-17T00:16:11.822Z,12.90
2022-09-17T00:16:36.345Z,12.90
2022-09-17T00:17:01.919Z,12.90
2022-09-17T00:17:24.990Z,12.90
2022-09-17T00:17:47.680Z,13.00
2022-09-17T00:18:10.432Z,12.90
2022-09-17T00:18:33.286Z,12.90
2022-09-17T00:18:56.174Z,12.90
2022-09-17T00:19:23.510Z,13.00
2022-09-17T00:19:46.164Z,12.90
2022-09-17T00:20:13.619Z,12.90
2022-09-17T00:20:39.647Z,12.90
2022-09-17T00:21:03.575Z,12.90
2022-09-17T00:21:26.654Z,12.90
2022-09-17T00:21:49.615Z,12.90
2022-09-17T00:22:12.339Z,12.90
2022-09-17T00:22:35.111Z,13.00
2022-09-17T00:22:57.869Z,13.00
2022-09-17T00:23:20.504Z,13.00
2022-09-17T00:23:43.229Z,12.90
2022-09-17T00:24:06.726Z,13.00
2022-09-17T00:24:29.448Z,12.90
2022-09-17T00:24:52.318Z,13.00
2022-09-17T00:25:15.169Z,13.00
2022-09-17T00:25:38.665Z,13.00
2022-09-17T00:26:04.480Z,12.90
2022-09-17T00:26:27.905Z,13.00
2022-09-17T00:26:50.878Z,13.00
2022-09-17T00:27:13.693Z,13.00
2022-09-17T00:27:36.454Z,13.00
2022-09-17T00:27:59.248Z,13.00
2022-09-17T00:28:22.042Z,13.00
2022-09-17T00:28:48.492Z,13.00
2022-09-17T00:29:11.187Z,13.00
2022-09-17T00:29:33.972Z,13.00
2022-09-17T00:29:56.677Z,13.00
2022-09-17T00:30:19.401Z,13.00
2022-09-17T00:30:42.234Z,13.00
2022-09-17T00:31:07.931Z,13.00
2022-09-17T00:31:30.826Z,13.00
2022-09-17T00:31:53.610Z,13.00
2022-09-17T00:32:16.432Z,13.00
2022-09-17T00:32:39.198Z,13.10
2022-09-17T00:33:01.998Z,13.10
2022-09-17T00:33:24.708Z,13.00
2022-09-17T00:33:47.433Z,13.00
2022-09-17T00:34:10.262Z,13.00
2022-09-17T00:34:34.631Z,13.00
2022-09-17T00:34:57.409Z,13.00
2022-09-17T00:35:20.065Z,13.00
2022-09-17T00:35:42.884Z,13.00
2022-09-17T00:36:05.879Z,13.00
2022-09-17T00:36:28.654Z,13.00
2022-09-17T00:36:51.709Z,13.00
2022-09-17T00:37:14.453Z,13.00
2022-09-17T00:37:37.147Z,13.00
2022-09-17T00:37:59.937Z,13.00
2022-09-17T00:38:22.821Z,13.00
2022-09-17T00:38:45.562Z,13.00
2022-09-17T00:39:09.240Z,13.00
2022-09-17T00:39:32.038Z,12.90
2022-09-17T00:39:54.768Z,13.00
2022-09-17T00:40:17.945Z,13.00
2022-09-17T00:40:40.732Z,13.00
2022-09-17T00:41:04.049Z,13.00
2022-09-17T00:41:34.487Z,13.00
2022-09-17T00:41:57.182Z,13.10
2022-09-17T00:42:19.954Z,13.10
2022-09-17T00:42:42.753Z,13.10
2022-09-17T00:43:07.540Z,13.10
2022-09-17T00:43:35.143Z,13.20
2022-09-17T00:43:58.706Z,13.10
2022-09-17T00:44:42.756Z,13.10
2022-09-17T00:45:06.871Z,13.10
2022-09-17T00:45:30.251Z,13.10
2022-09-17T00:45:54.081Z,13.10
2022-09-17T00:46:23.411Z,13.10
2022-09-17T00:46:46.258Z,13.10
2022-09-17T00:47:13.813Z,13.10
2022-09-17T00:47:39.033Z,13.10
2022-09-17T00:48:03.239Z,13.10
2022-09-17T00:48:26.150Z,13.10
2022-09-17T00:48:49.455Z,13.10
2022-09-17T00:49:16.965Z,13.10
2022-09-17T00:49:41.234Z,13.00
2022-09-17T00:50:06.342Z,13.00
2022-09-17T00:50:30.589Z,13.10
2022-09-17T00:50:53.279Z,13.00
2022-09-17T00:51:18.090Z,13.00
2022-09-17T00:51:42.469Z,13.00
2022-09-17T00:52:06.734Z,13.00
2022-09-17T00:52:31.918Z,13.00
2022-09-17T00:52:56.804Z,13.00
2022-09-17T00:53:21.037Z,12.90
2022-09-17T00:53:43.685Z,13.00
2022-09-17T00:54:08.009Z,13.00
2022-09-17T00:54:31.187Z,12.90
2022-09-17T00:55:00.876Z,12.90
2022-09-17T00:55:24.786Z,12.90
2022-09-17T00:55:49.121Z,12.90
2022-09-17T00:56:15.037Z,12.90
2022-09-17T00:56:39.081Z,13.00
2022-09-17T00:57:01.816Z,12.90
2022-09-17T00:57:24.686Z,12.90
2022-09-17T00:57:47.720Z,12.90
2022-09-17T00:58:11.196Z,12.90
2022-09-17T00:58:37.836Z,12.90
2022-09-17T00:59:03.849Z,12.90
2022-09-17T00:59:27.133Z,12.90
2022-09-17T00:59:49.907Z,12.90
2022-09-17T01:00:14.473Z,12.90
2022-09-17T01:00:40.167Z,12.80
2022-09-17T01:01:03.017Z,12.90
2022-09-17T01:01:25.933Z,12.90
2022-09-17T01:01:48.731Z,12.90
2022-09-17T01:02:11.505Z,12.90
2022-09-17T01:02:34.606Z,12.90
2022-09-17T01:02:57.355Z,12.80
2022-09-17T01:03:20.013Z,12.90
2022-09-17T01:03:42.714Z,12.90
2022-09-17T01:04:05.442Z,12.90
2022-09-17T01:04:28.234Z,12.90
2022-09-17T01:04:52.468Z,12.90
2022-09-17T01:05:15.248Z,12.90
2022-09-17T01:05:42.770Z,12.90
2022-09-17T01:06:09.359Z,12.90
2022-09-17T01:06:34.425Z,12.90
2022-09-17T01:07:03.372Z,12.90
2022-09-17T01:07:39.357Z,12.90
2022-09-17T01:08:06.396Z,12.90
2022-09-17T01:08:31.741Z,13.00
2022-09-17T01:09:06.585Z,12.90
2022-09-17T01:09:32.356Z,13.00
2022-09-17T01:09:56.727Z,13.00
2022-09-17T01:10:28.168Z,13.00
2022-09-17T01:11:08.185Z,13.00
2022-09-17T01:11:57.196Z,13.00
2022-09-17T01:12:38.820Z,13.00
2022-09-17T01:13:07.745Z,13.00
2022-09-17T01:13:36.311Z,13.00
2022-09-17T01:14:05.613Z,13.10
2022-09-17T01:14:39.596Z,13.10
2022-09-17T01:15:12.751Z,13.10
2022-09-17T01:15:38.561Z,13.10
2022-09-17T01:16:05.783Z,13.00
2022-09-17T01:16:32.508Z,13.10
2022-09-17T01:16:57.985Z,13.10
2022-09-17T01:17:28.748Z,13.00
2022-09-17T01:17:59.574Z,13.00
2022-09-17T01:18:39.027Z,13.00
2022-09-17T01:19:17.084Z,13.00
2022-09-17T01:20:16.524Z,13.10
2022-09-17T01:21:21.825Z,13.10
2022-09-17T01:21:50.920Z,13.10
2022-09-17T01:22:15.691Z,13.00
2022-09-17T01:22:46.805Z,13.00
2022-09-17T01:23:29.927Z,13.00
2022-09-17T01:24:26.246Z,13.00
2022-09-17T01:24:50.702Z,13.00
2022-09-17T01:25:25.047Z,13.00
2022-09-17T01:25:52.628Z,13.00
2022-09-17T01:26:30.096Z,13.00
2022-09-17T01:27:29.780Z,13.00
2022-09-17T01:28:33.151Z,13.00
2022-09-17T01:29:04.068Z,13.00
2022-09-17T01:29:35.803Z,13.00
2022-09-17T01:30:15.688Z,13.00
2022-09-17T01:30:56.171Z,13.10
2022-09-17T01:31:37.010Z,13.10
2022-09-17T01:32:01.600Z,13.00
2022-09-17T01:32:25.926Z,13.00
2022-09-17T01:32:51.361Z,13.00
2022-09-17T01:33:16.020Z,13.00
2022-09-17T01:33:41.362Z,13.00
2022-09-17T01:34:11.643Z,13.00
2022-09-17T01:34:40.603Z,13.00
2022-09-17T01:35:06.231Z,13.00
2022-09-17T01:35:34.175Z,13.00
2022-09-17T01:36:02.055Z,13.00
2022-09-17T01:36:40.005Z,12.90
2022-09-17T01:37:04.700Z,13.00
2022-09-17T01:37:30.874Z,13.00
2022-09-17T01:38:01.825Z,13.00
2022-09-17T01:38:27.720Z,13.00
2022-09-17T01:38:54.884Z,13.00
2022-09-17T01:39:24.001Z,13.00
2022-09-17T01:39:48.987Z,13.00
2022-09-17T01:40:14.168Z,13.00
2022-09-17T01:40:39.700Z,12.90
2022-09-17T01:41:08.035Z,13.00
2022-09-17T01:41:32.910Z,13.00
2022-09-17T01:42:00.484Z,12.90
2022-09-17T01:42:25.427Z,12.90
2022-09-17T01:42:50.004Z,13.00
2022-09-17T01:43:16.316Z,12.90
2022-09-17T01:43:41.921Z,12.90
2022-09-17T01:44:07.855Z,12.90
2022-09-17T01:44:32.395Z,13.00
2022-09-17T01:44:58.561Z,13.00
2022-09-17T01:45:24.805Z,13.00
2022-09-17T01:45:51.120Z,13.10
2022-09-17T01:46:16.405Z,13.00
2022-09-17T01:46:41.796Z,13.10
2022-09-17T01:47:06.885Z,12.90
2022-09-17T01:47:32.977Z,13.10
2022-09-17T01:47:56.907Z,13.10
2022-09-17T01:48:20.156Z,13.10
2022-09-17T01:48:44.544Z,13.10
2022-09-17T01:49:08.326Z,13.10
2022-09-17T01:49:32.026Z,13.10
2022-09-17T01:49:57.311Z,13.10
2022-09-17T01:50:21.931Z,13.10
2022-09-17T01:50:48.999Z,13.10
2022-09-17T01:51:13.369Z,13.10
2022-09-17T01:51:38.115Z,13.00
2022-09-17T01:52:01.050Z,13.10
2022-09-17T01:52:23.844Z,13.10
2022-09-17T01:52:46.879Z,13.10
2022-09-17T01:53:10.250Z,13.00
2022-09-17T01:53:37.339Z,13.00
2022-09-17T01:54:02.565Z,13.00
2022-09-17T01:54:26.629Z,13.00
2022-09-17T01:54:51.221Z,13.00
2022-09-17T01:55:15.369Z,13.00
2022-09-17T01:55:39.038Z,13.00
2022-09-17T01:56:02.250Z,13.00
2022-09-17T01:56:27.211Z,13.00
2022-09-17T01:56:52.900Z,13.00
2022-09-17T01:57:18.532Z,13.10
2022-09-17T01:57:43.062Z,13.10
2022-09-17T01:58:08.020Z,13.00
2022-09-17T01:58:32.670Z,13.10
2022-09-17T01:58:58.235Z,13.10
2022-09-17T01:59:22.899Z,13.10
2022-09-17T01:59:48.010Z,13.20
2022-09-17T02:00:13.967Z,13.20
2022-09-17T02:00:37.066Z,13.10
2022-09-17T02:01:04.213Z,13.20
2022-09-17T02:01:31.359Z,13.10
2022-09-17T02:01:55.766Z,13.10
2022-09-17T02:02:21.785Z,13.10
2022-09-17T02:02:46.415Z,13.10
2022-09-17T02:03:10.404Z,13.10
2022-09-17T02:03:35.359Z,13.10
2022-09-17T02:04:02.761Z,13.20
2022-09-17T02:04:27.892Z,13.20
2022-09-17T02:04:55.864Z,13.10
2022-09-17T02:05:20.324Z,13.20
2022-09-17T02:05:44.349Z,13.20
2022-09-17T02:06:09.790Z,13.20
2022-09-17T02:06:33.769Z,13.10
2022-09-17T02:07:00.830Z,13.10
2022-09-17T02:07:23.644Z,13.10
2022-09-17T02:07:47.894Z,13.10
2022-09-17T02:08:12.157Z,13.10
2022-09-17T02:08:37.283Z,13.10
2022-09-17T02:09:01.934Z,13.10
2022-09-17T02:09:27.066Z,13.10
2022-09-17T02:09:53.774Z,13.10
2022-09-17T02:10:17.924Z,13.10
2022-09-17T02:10:43.170Z,13.10
2022-09-17T02:11:08.561Z,13.10
2022-09-17T02:11:31.301Z,13.00
2022-09-17T02:11:55.980Z,13.00
2022-09-17T02:12:20.941Z,13.00
2022-09-17T02:12:49.078Z,13.00
2022-09-17T02:13:14.698Z,13.00
2022-09-17T02:13:39.510Z,13.00
2022-09-17T02:14:04.238Z,13.00
2022-09-17T02:14:28.891Z,13.00
2022-09-17T02:14:52.794Z,12.90
2022-09-17T02:15:18.280Z,12.90
2022-09-17T02:15:43.238Z,12.90
2022-09-17T02:16:09.792Z,13.00
2022-09-17T02:16:34.157Z,12.90
2022-09-17T02:17:01.225Z,12.90
2022-09-17T02:17:27.369Z,12.90
2022-09-17T02:17:52.219Z,12.90
2022-09-17T02:18:18.345Z,12.90
2022-09-17T02:18:44.239Z,12.90
2022-09-17T02:19:08.240Z,12.90
2022-09-17T02:19:32.247Z,12.80
2022-09-17T02:19:55.120Z,12.80
2022-09-17T02:20:22.678Z,12.80
2022-09-17T02:20:46.715Z,12.80
2022-09-17T02:21:12.000Z,12.80
2022-09-17T02:21:37.700Z,12.80
2022-09-17T02:22:03.335Z,12.80
2022-09-17T02:22:28.345Z,12.80
2022-09-17T02:22:52.804Z,12.90
2022-09-17T02:23:17.115Z,12.80
2022-09-17T02:23:43.670Z,12.80
2022-09-17T02:24:08.011Z,12.80
2022-09-17T02:24:34.291Z,12.90
2022-09-17T02:25:02.251Z,12.80
2022-09-17T02:25:26.650Z,12.80
2022-09-17T02:25:52.970Z,12.80
2022-09-17T02:26:18.256Z,12.80
2022-09-17T02:26:48.006Z,12.80
2022-09-17T02:27:14.813Z,12.80
2022-09-17T02:27:46.350Z,12.80
2022-09-17T02:28:12.198Z,12.80
2022-09-17T02:28:41.937Z,12.80
2022-09-17T02:29:07.850Z,12.80
2022-09-17T02:29:34.240Z,12.80
2022-09-17T02:29:56.950Z,12.80
2022-09-17T02:30:19.679Z,12.80
2022-09-17T02:30:43.691Z,12.90
2022-09-17T02:31:07.884Z,12.90
2022-09-17T02:31:30.818Z,12.90
2022-09-17T02:31:54.100Z,12.90
2022-09-17T02:32:16.795Z,12.90
2022-09-17T02:32:42.095Z,12.90
2022-09-17T02:33:07.080Z,12.90
2022-09-17T02:33:30.440Z,12.90
2022-09-17T02:33:55.195Z,12.90
2022-09-17T02:34:18.401Z,13.00
2022-09-17T02:34:41.210Z,13.00
2022-09-17T02:35:04.475Z,13.00
2022-09-17T02:35:27.173Z,13.00
2022-09-17T02:35:49.915Z,13.00
2022-09-17T02:36:12.635Z,13.00
2022-09-17T02:36:35.419Z,13.00
2022-09-17T02:37:00.796Z,13.00
2022-09-17T02:37:23.672Z,13.00
2022-09-17T02:37:46.416Z,13.00
2022-09-17T02:38:09.198Z,13.00
2022-09-17T02:38:31.946Z,13.00
2022-09-17T02:38:58.731Z,13.00
2022-09-17T02:39:21.445Z,13.00
2022-09-17T02:39:44.175Z,13.00
2022-09-17T02:40:09.347Z,13.00
2022-09-17T02:40:34.941Z,13.00
2022-09-17T02:41:01.875Z,13.00
2022-09-17T02:41:26.355Z,13.00
2022-09-17T02:41:54.409Z,13.00
2022-09-17T02:42:22.582Z,13.00
2022-09-17T02:42:59.489Z,13.00
2022-09-17T02:43:28.726Z,13.00
2022-09-17T02:43:55.693Z,12.90
2022-09-17T02:44:23.683Z,13.00
2022-09-17T02:44:55.214Z,13.00
2022-09-17T02:45:21.428Z,13.10
2022-09-17T02:45:49.447Z,13.00
2022-09-17T02:46:28.508Z,13.00
2022-09-17T02:47:07.310Z,13.00
2022-09-17T02:47:39.659Z,13.10
2022-09-17T02:48:21.441Z,13.10
2022-09-17T02:48:58.768Z,13.10
2022-09-17T02:49:33.121Z,13.10
2022-09-17T02:50:08.081Z,13.00
2022-09-17T02:50:40.326Z,13.00
2022-09-17T02:51:11.341Z,13.00
2022-09-17T02:51:37.091Z,13.00
2022-09-17T02:52:04.972Z,13.00
2022-09-17T02:52:34.875Z,13.00
2022-09-17T02:53:13.271Z,13.00
2022-09-17T02:53:38.441Z,13.00
2022-09-17T02:54:10.055Z,12.90
2022-09-17T02:54:37.088Z,13.00
2022-09-17T02:55:03.315Z,13.00
2022-09-17T02:55:29.566Z,13.00
2022-09-17T02:55:57.438Z,12.90
2022-09-17T02:56:25.481Z,12.90
2022-09-17T02:56:54.563Z,12.90
2022-09-17T02:57:20.648Z,12.90
2022-09-17T02:57:46.734Z,12.90
2022-09-17T02:58:15.382Z,12.90
2022-09-17T02:58:41.458Z,12.80
2022-09-17T02:59:09.555Z,12.80
2022-09-17T02:59:34.890Z,12.80
2022-09-17T02:59:59.394Z,12.80
2022-09-17T03:00:22.838Z,12.80
2022-09-17T03:00:45.630Z,12.80
2022-09-17T03:01:15.772Z,12.80
2022-09-17T03:01:43.558Z,12.80
2022-09-17T03:02:07.828Z,12.90
2022-09-17T03:02:32.796Z,12.80
2022-09-17T03:02:57.837Z,12.90
2022-09-17T03:03:22.152Z,12.90
2022-09-17T03:03:44.938Z,12.90
2022-09-17T03:04:08.626Z,12.90
2022-09-17T03:04:32.445Z,12.90
2022-09-17T03:04:55.583Z,13.00
2022-09-17T03:05:19.115Z,12.90
2022-09-17T03:05:42.925Z,12.90
2022-09-17T03:06:05.904Z,12.90
2022-09-17T03:06:28.657Z,12.90
2022-09-17T03:06:52.375Z,12.90
2022-09-17T03:07:15.040Z,12.90
2022-09-17T03:07:38.886Z,12.90
2022-09-17T03:08:01.919Z,12.90
2022-09-17T03:08:29.265Z,12.90
2022-09-17T03:08:52.025Z,12.90
2022-09-17T03:09:14.805Z,12.90
2022-09-17T03:09:37.491Z,12.90
2022-09-17T03:10:00.846Z,12.90
2022-09-17T03:10:23.525Z,12.90
2022-09-17T03:10:47.281Z,12.90
2022-09-17T03:11:12.947Z,12.90
2022-09-17T03:11:35.949Z,12.90
2022-09-17T03:11:58.600Z,12.90
2022-09-17T03:12:22.269Z,12.90
2022-09-17T03:12:44.961Z,12.90
2022-09-17T03:13:07.675Z,12.90
2022-09-17T03:13:31.100Z,12.90
2022-09-17T03:13:53.835Z,12.90
2022-09-17T03:14:16.569Z,12.90
2022-09-17T03:14:39.294Z,13.00
2022-09-17T03:15:02.231Z,12.90
2022-09-17T03:15:24.974Z,13.00
2022-09-17T03:15:47.749Z,13.00
2022-09-17T03:16:10.631Z,13.00
2022-09-17T03:16:33.607Z,13.00
2022-09-17T03:16:57.824Z,13.00
2022-09-17T03:17:20.556Z,13.00
2022-09-17T03:17:43.429Z,13.00
2022-09-17T03:18:06.169Z,12.90
2022-09-17T03:18:28.848Z,13.00
2022-09-17T03:18:51.628Z,13.00
2022-09-17T03:19:14.313Z,13.00
2022-09-17T03:19:37.018Z,13.00
2022-09-17T03:19:59.696Z,13.00
2022-09-17T03:20:22.528Z,13.00
2022-09-17T03:20:46.617Z,13.00
2022-09-17T03:21:12.816Z,13.00
2022-09-17T03:21:35.528Z,13.00
2022-09-17T03:21:58.287Z,13.00
2022-09-17T03:22:20.952Z,13.00
2022-09-17T03:22:47.316Z,13.00
2022-09-17T03:23:10.027Z,13.00
2022-09-17T03:23:32.969Z,13.00
2022-09-17T03:23:55.683Z,13.00
2022-09-17T03:24:18.524Z,13.00
2022-09-17T03:24:41.263Z,13.10
2022-09-17T03:25:04.430Z,13.00
2022-09-17T03:25:27.205Z,13.10
2022-09-17T03:25:49.885Z,13.10
2022-09-17T03:26:12.655Z,13.10
2022-09-17T03:26:35.608Z,13.10
2022-09-17T03:26:58.751Z,13.10
2022-09-17T03:27:21.436Z,13.10
2022-09-17T03:27:44.315Z,13.10
2022-09-17T03:28:07.023Z,13.10
2022-09-17T03:28:29.685Z,13.20
2022-09-17T03:28:52.425Z,13.10
2022-09-17T03:29:15.110Z,13.10
2022-09-17T03:29:37.746Z,13.10
2022-09-17T03:30:00.430Z,13.10
2022-09-17T03:30:23.170Z,13.10
2022-09-17T03:30:45.899Z,13.10
2022-09-17T03:31:08.865Z,13.10
2022-09-17T03:31:32.400Z,13.10
2022-09-17T03:31:55.245Z,13.10
2022-09-17T03:32:19.386Z,13.10
2022-09-17T03:32:42.276Z,13.10
2022-09-17T03:33:05.154Z,13.10
2022-09-17T03:33:27.912Z,13.10
2022-09-17T03:33:50.683Z,13.00
2022-09-17T03:34:13.461Z,13.00
2022-09-17T03:34:36.263Z,13.10
2022-09-17T03:34:59.008Z,13.10
2022-09-17T03:35:21.772Z,13.10
2022-09-17T03:35:44.477Z,13.10
2022-09-17T03:36:07.453Z,13.10
2022-09-17T03:36:30.152Z,13.10
2022-09-17T03:36:52.874Z,13.10
2022-09-17T03:37:15.563Z,13.10
2022-09-17T03:37:38.385Z,13.10
2022-09-17T03:38:01.121Z,13.10
2022-09-17T03:38:23.935Z,13.20
2022-09-17T03:38:46.611Z,13.20
2022-09-17T03:39:09.375Z,13.10
2022-09-17T03:39:32.106Z,13.10
2022-09-17T03:39:54.866Z,13.10
2022-09-17T03:40:17.656Z,13.10
2022-09-17T03:40:40.839Z,13.10
2022-09-17T03:41:05.355Z,13.00
2022-09-17T03:41:28.237Z,13.00
2022-09-17T03:41:51.530Z,13.00
2022-09-17T03:42:14.415Z,13.00
2022-09-17T03:42:37.077Z,13.00
2022-09-17T03:42:59.825Z,13.00
2022-09-17T03:43:22.575Z,13.00
2022-09-17T03:43:45.315Z,13.00
2022-09-17T03:44:10.431Z,13.00
2022-09-17T03:44:33.163Z,13.00
2022-09-17T03:44:58.261Z,13.00
2022-09-17T03:45:20.996Z,13.00
2022-09-17T03:45:44.080Z,13.00
2022-09-17T03:46:06.881Z,13.00
2022-09-17T03:46:29.711Z,13.00
2022-09-17T03:46:54.884Z,13.00
2022-09-17T03:47:20.860Z,13.00
2022-09-17T03:47:43.545Z,13.00
2022-09-17T03:48:06.240Z,13.00
2022-09-17T03:48:29.765Z,12.90
2022-09-17T03:48:52.615Z,13.00
2022-09-17T03:49:15.320Z,12.90
2022-09-17T03:49:38.158Z,12.80
2022-09-17T03:50:01.084Z,12.90
2022-09-17T03:50:23.837Z,12.90
2022-09-17T03:50:46.559Z,12.90
2022-09-17T03:51:09.301Z,12.90
2022-09-17T03:51:32.048Z,12.90
2022-09-17T03:51:54.791Z,12.90
2022-09-17T03:52:20.651Z,12.90
2022-09-17T03:52:44.005Z,12.90
2022-09-17T03:53:06.711Z,12.90
2022-09-17T03:53:29.450Z,12.90
2022-09-17T03:53:52.141Z,12.90
2022-09-17T03:54:14.961Z,12.80
2022-09-17T03:54:40.611Z,12.90
2022-09-17T03:55:03.498Z,12.90
2022-09-17T03:55:26.272Z,12.90
2022-09-17T03:55:48.961Z,12.90
2022-09-17T03:56:11.671Z,12.90
2022-09-17T03:56:34.441Z,12.90
2022-09-17T03:56:59.371Z,12.90
2022-09-17T03:57:23.063Z,12.90
2022-09-17T03:57:45.852Z,12.90
2022-09-17T03:58:08.731Z,12.90
2022-09-17T03:58:31.467Z,12.90
2022-09-17T03:58:58.732Z,12.90
2022-09-17T03:59:21.441Z,12.80
2022-09-17T03:59:44.171Z,12.90
2022-09-17T04:00:08.496Z,12.90
2022-09-17T04:00:31.291Z,12.90
2022-09-17T04:00:55.851Z,12.90
2022-09-17T04:01:18.616Z,12.90
2022-09-17T04:01:41.711Z,12.90
2022-09-17T04:02:04.903Z,12.90
2022-09-17T04:02:29.288Z,12.90
2022-09-17T04:02:52.407Z,12.90
2022-09-17T04:03:15.340Z,12.90
2022-09-17T04:03:38.380Z,12.90
2022-09-17T04:04:01.328Z,13.00
2022-09-17T04:04:24.436Z,12.90
2022-09-17T04:04:47.171Z,12.90
2022-09-17T04:05:10.561Z,12.90
2022-09-17T04:05:34.441Z,12.90
2022-09-17T04:05:57.155Z,12.90
2022-09-17T04:06:19.985Z,12.90
2022-09-17T04:06:42.953Z,12.90
2022-09-17T04:07:05.725Z,12.90
2022-09-17T04:07:28.563Z,12.90
2022-09-17T04:07:52.276Z,13.00
2022-09-17T04:08:14.951Z,13.00
2022-09-17T04:08:37.614Z,12.90
2022-09-17T04:09:01.286Z,13.00
2022-09-17T04:09:23.993Z,12.90
2022-09-17T04:09:46.711Z,13.00
2022-09-17T04:10:09.696Z,13.00
2022-09-17T04:10:32.396Z,13.00
2022-09-17T04:10:55.076Z,13.00
2022-09-17T04:11:17.807Z,13.00
2022-09-17T04:11:40.654Z,13.00
2022-09-17T04:12:03.961Z,13.00
2022-09-17T04:12:26.699Z,13.00
2022-09-17T04:12:49.338Z,13.00
2022-09-17T04:13:12.198Z,12.90
2022-09-17T04:13:35.034Z,12.90
2022-09-17T04:13:57.719Z,12.90
2022-09-17T04:14:20.538Z,12.90
2022-09-17T04:14:43.319Z,12.90
2022-09-17T04:15:07.531Z,12.80
2022-09-17T04:15:30.366Z,12.80
2022-09-17T04:15:55.666Z,12.90
2022-09-17T04:16:18.456Z,12.80
2022-09-17T04:16:41.137Z,12.80
2022-09-17T04:17:03.896Z,12.80
2022-09-17T04:17:28.131Z,12.80
2022-09-17T04:17:50.904Z,12.80
2022-09-17T04:18:13.915Z,12.80
2022-09-17T04:18:36.695Z,12.80
2022-09-17T04:18:59.567Z,12.80
2022-09-17T04:19:22.396Z,12.80
2022-09-17T04:19:45.182Z,12.70
2022-09-17T04:20:08.334Z,12.70
2022-09-17T04:20:31.215Z,12.70
2022-09-17T04:20:53.922Z,12.70
2022-09-17T04:21:16.726Z,12.70
2022-09-17T04:21:41.875Z,12.70
2022-09-17T04:22:05.356Z,12.70
2022-09-17T04:22:28.072Z,12.70
2022-09-17T04:22:50.919Z,12.70
2022-09-17T04:23:13.692Z,12.70
2022-09-17T04:23:36.796Z,12.70
2022-09-17T04:24:00.171Z,12.70
2022-09-17T04:24:22.930Z,12.70
2022-09-17T04:24:48.036Z,12.70
2022-09-17T04:25:11.677Z,12.70
2022-09-17T04:25:34.475Z,12.70
2022-09-17T04:25:57.225Z,12.70
2022-09-17T04:26:19.981Z,12.70
2022-09-17T04:26:42.716Z,12.70
2022-09-17T04:27:05.595Z,12.70
2022-09-17T04:27:28.532Z,12.70
2022-09-17T04:27:51.374Z,12.70
2022-09-17T04:28:14.210Z,12.70
2022-09-17T04:28:39.065Z,12.70
2022-09-17T04:29:02.879Z,12.70
2022-09-17T04:29:26.251Z,12.70
2022-09-17T04:29:49.107Z,12.70
2022-09-17T04:30:12.981Z,12.80
2022-09-17T04:30:36.039Z,12.80
2022-09-17T04:30:58.740Z,12.80
2022-09-17T04:31:22.795Z,12.80
2022-09-17T04:31:45.782Z,12.70
2022-09-17T04:32:09.256Z,12.70
2022-09-17T04:32:33.532Z,12.70
2022-09-17T04:32:56.223Z,12.70
2022-09-17T04:33:18.932Z,12.70
2022-09-17T04:33:44.661Z,12.70
2022-09-17T04:34:07.509Z,12.70
2022-09-17T04:34:30.958Z,12.70
2022-09-17T04:34:53.594Z,12.70
2022-09-17T04:35:16.670Z,12.60
2022-09-17T04:35:39.348Z,12.60
2022-09-17T04:36:02.483Z,12.60
2022-09-17T04:36:25.264Z,12.60
2022-09-17T04:36:47.973Z,12.60
2022-09-17T04:37:11.848Z,12.60
2022-09-17T04:37:34.696Z,12.50
2022-09-17T04:37:57.668Z,12.50
2022-09-17T04:38:21.235Z,12.50
2022-09-17T04:38:44.093Z,12.50
2022-09-17T04:39:06.788Z,12.50
2022-09-17T04:39:29.518Z,12.50
2022-09-17T04:39:52.267Z,12.50
2022-09-17T04:40:15.190Z,12.50
2022-09-17T04:40:37.965Z,12.60
2022-09-17T04:41:00.703Z,12.60
2022-09-17T04:41:23.456Z,12.50
2022-09-17T04:41:46.422Z,12.50
2022-09-17T04:42:09.848Z,12.50
2022-09-17T04:42:32.576Z,12.50
2022-09-17T04:42:59.689Z,12.50
2022-09-17T04:43:22.397Z,12.50
2022-09-17T04:43:45.156Z,12.50
2022-09-17T04:44:07.840Z,12.50
2022-09-17T04:44:30.594Z,12.50
2022-09-17T04:44:53.266Z,12.50
2022-09-17T04:45:16.076Z,12.50
2022-09-17T04:45:38.743Z,12.50
2022-09-17T04:46:01.528Z,12.50
2022-09-17T04:46:24.320Z,12.60
2022-09-17T04:46:47.378Z,12.60
2022-09-17T04:47:10.392Z,12.60
2022-09-17T04:47:34.554Z,12.60
2022-09-17T04:47:57.607Z,12.50
2022-09-17T04:48:20.319Z,12.50
2022-09-17T04:48:43.162Z,12.50
2022-09-17T04:49:05.920Z,12.50
2022-09-17T04:49:31.086Z,12.50
2022-09-17T04:49:53.763Z,12.50
2022-09-17T04:50:17.017Z,12.50
2022-09-17T04:50:40.828Z,12.50
2022-09-17T04:51:03.521Z,12.50
2022-09-17T04:51:26.212Z,12.50
2022-09-17T04:51:49.133Z,12.50
2022-09-17T04:52:11.957Z,12.50
2022-09-17T04:52:34.664Z,12.50
2022-09-17T04:52:57.311Z,12.50
2022-09-17T04:53:20.033Z,12.50
2022-09-17T04:53:42.922Z,12.50
2022-09-17T04:54:07.042Z,12.50
2022-09-17T04:54:29.876Z,12.50
2022-09-17T04:54:52.575Z,12.50
2022-09-17T04:55:15.367Z,12.40
2022-09-17T04:55:38.101Z,12.50
2022-09-17T04:56:00.896Z,12.50
2022-09-17T04:56:23.566Z,12.40
2022-09-17T04:56:46.393Z,12.50
2022-09-17T04:57:09.064Z,12.50
2022-09-17T04:57:31.846Z,12.40
2022-09-17T04:57:55.049Z,12.40
2022-09-17T04:58:17.758Z,12.40
2022-09-17T04:58:40.785Z,12.40
2022-09-17T04:59:03.515Z,12.40
2022-09-17T04:59:26.203Z,12.40
2022-09-17T04:59:48.970Z,12.40
2022-09-17T05:00:12.975Z,12.40
2022-09-17T05:00:35.762Z,12.40
2022-09-17T05:00:58.566Z,12.40
2022-09-17T05:01:22.402Z,12.40
2022-09-17T05:01:45.342Z,12.40
2022-09-17T05:02:08.186Z,12.40
2022-09-17T05:02:31.717Z,12.40
2022-09-17T05:02:56.085Z,12.40
2022-09-17T05:03:19.355Z,12.40
2022-09-17T05:03:42.164Z,12.40
2022-09-17T05:04:04.789Z,12.40
2022-09-17T05:04:27.479Z,12.40
2022-09-17T05:04:50.843Z,12.30
2022-09-17T05:05:13.680Z,12.30
2022-09-17T05:05:36.419Z,12.30
2022-09-17T05:05:59.049Z,12.40
2022-09-17T05:06:21.889Z,12.30
2022-09-17T05:06:44.654Z,12.30
2022-09-17T05:07:09.953Z,12.40
2022-09-17T05:07:38.418Z,12.30
2022-09-17T05:08:01.275Z,12.40
2022-09-17T05:08:25.469Z,12.40
2022-09-17T05:08:48.170Z,12.40
2022-09-17T05:09:10.884Z,12.40
2022-09-17T05:09:33.563Z,12.40
2022-09-17T05:09:56.628Z,12.40
2022-09-17T05:10:20.629Z,12.40
2022-09-17T05:10:43.623Z,12.40
2022-09-17T05:11:06.397Z,12.40
2022-09-17T05:11:29.123Z,12.40
2022-09-17T05:11:51.929Z,12.40
2022-09-17T05:12:14.592Z,12.40
2022-09-17T05:12:37.291Z,12.40
2022-09-17T05:13:00.031Z,12.40
2022-09-17T05:13:23.062Z,12.40
2022-09-17T05:13:45.776Z,12.40
2022-09-17T05:14:08.657Z,12.50
2022-09-17T05:14:31.323Z,12.40
2022-09-17T05:14:54.208Z,12.40
2022-09-17T05:15:17.075Z,12.30
2022-09-17T05:15:39.678Z,12.30
2022-09-17T05:16:05.323Z,12.30
2022-09-17T05:16:28.147Z,12.30
2022-09-17T05:16:50.980Z,12.30
2022-09-17T05:17:13.769Z,12.30
2022-09-17T05:17:38.880Z,12.30
2022-09-17T05:18:03.279Z,12.30
2022-09-17T05:18:26.441Z,12.30
2022-09-17T05:18:51.385Z,12.30
2022-09-17T05:19:14.194Z,12.40